createdAt,value
2019-05-14T00:00:48.819Z,2.37
2019-05-14T00:03:31.148Z,2.40
2019-05-14T00:05:58.023Z,2.37
2019-05-14T00:08:24.906Z,2.27
2019-05-14T00:10:52.585Z,2.20
2019-05-14T00:13:21.333Z,2.87
2019-05-14T00:15:48.057Z,1.98
2019-05-14T00:18:15.061Z,2.10
2019-05-14T00:20:42.109Z,1.80
2019-05-14T00:23:09.157Z,2.08
2019-05-14T00:25:35.936Z,2.10
2019-05-14T00:28:02.798Z,2.02
2019-05-14T00:30:31.662Z,2.20
2019-05-14T00:32:58.252Z,2.45
2019-05-14T00:35:25.589Z,2.05
2019-05-14T00:37:52.463Z,2.15
2019-05-14T00:40:21.894Z,2.12
2019-05-14T00:42:48.388Z,2.08
2019-05-14T00:45:15.871Z,2.00
2019-05-14T00:47:42.610Z,2.10
2019-05-14T00:50:11.228Z,2.10
2019-05-14T00:52:38.311Z,1.87
2019-05-14T00:55:07.082Z,2.30
2019-05-14T00:57:34.169Z,2.30
2019-05-14T01:00:01.250Z,2.08
2019-05-14T01:02:28.580Z,2.00
2019-05-14T01:04:55.475Z,2.00
2019-05-14T01:07:22.231Z,1.87
2019-05-14T01:09:49.201Z,1.92
2019-05-14T01:12:16.007Z,2.10
2019-05-14T01:14:43.105Z,2.05
2019-05-14T01:17:11.244Z,2.00
2019-05-14T01:19:38.371Z,2.20
2019-05-14T01:22:05.482Z,1.62
2019-05-14T01:24:32.403Z,1.90
2019-05-14T01:27:01.596Z,1.90
2019-05-14T01:29:31.462Z,2.10
2019-05-14T01:31:57.837Z,2.10
2019-05-14T01:34:24.584Z,1.72
2019-05-14T01:36:52.967Z,1.92
2019-05-14T01:39:21.327Z,2.20
2019-05-14T01:41:48.588Z,2.05
2019-05-14T01:44:15.329Z,2.00
2019-05-14T01:46:42.251Z,1.85
2019-05-14T01:49:09.043Z,1.90
2019-05-14T01:51:36.125Z,2.20
2019-05-14T01:54:03.353Z,2.40
2019-05-14T01:56:31.883Z,2.20
2019-05-14T01:58:58.968Z,2.45
2019-05-14T02:01:26.163Z,2.62
2019-05-14T02:03:52.928Z,1.95
2019-05-14T02:06:21.284Z,2.08
2019-05-14T02:08:48.324Z,2.10
2019-05-14T02:11:15.058Z,2.10
2019-05-14T02:13:44.228Z,2.20
2019-05-14T02:16:13.022Z,2.47
2019-05-14T02:18:41.645Z,2.35
2019-05-14T02:21:08.857Z,2.08
2019-05-14T02:23:36.103Z,2.47
2019-05-14T02:26:03.572Z,2.05
2019-05-14T02:28:31.524Z,2.40
2019-05-14T02:31:03.130Z,1.98
2019-05-14T02:33:30.637Z,2.20
2019-05-14T02:35:59.996Z,2.10
2019-05-14T02:38:29.643Z,2.50
2019-05-14T02:40:55.530Z,1.90
2019-05-14T02:43:22.277Z,2.15
2019-05-14T02:46:02.148Z,2.45
2019-05-14T02:48:20.221Z,2.20
2019-05-14T02:50:49.406Z,2.58
2019-05-14T02:53:15.690Z,2.30
2019-05-14T02:55:42.986Z,2.25
2019-05-14T02:58:10.157Z,2.08
2019-05-14T03:00:40.423Z,2.62
2019-05-14T03:03:05.932Z,2.47
2019-05-14T03:05:32.875Z,2.40
2019-05-14T03:08:00.239Z,2.50
2019-05-14T03:10:30.267Z,2.42
2019-05-14T03:12:59.063Z,2.30
2019-05-14T03:15:28.888Z,2.30
2019-05-14T03:17:54.774Z,2.20
2019-05-14T03:20:22.059Z,2.58
2019-05-14T03:23:01.789Z,2.27
2019-05-14T03:25:19.337Z,2.80
2019-05-14T03:27:49.594Z,2.50
2019-05-14T03:30:15.744Z,2.50
2019-05-14T03:32:43.412Z,2.22
2019-05-14T03:35:13.754Z,2.40
2019-05-14T03:37:39.762Z,2.47
2019-05-14T03:40:09.263Z,2.47
2019-05-14T03:42:39.642Z,2.17
2019-05-14T03:45:08.447Z,2.58
2019-05-14T03:47:34.901Z,2.58
2019-05-14T03:50:02.321Z,2.25
2019-05-14T03:52:29.630Z,2.40
2019-05-14T03:55:01.154Z,2.45
2019-05-14T03:57:25.515Z,2.30
2019-05-14T03:59:52.574Z,2.65
2019-05-14T04:02:20.069Z,2.15
2019-05-14T04:04:50.246Z,2.42
2019-05-14T04:07:19.570Z,2.30
2019-05-14T04:09:49.656Z,2.20
2019-05-14T04:12:19.597Z,2.20
2019-05-14T04:14:50.687Z,2.12
2019-05-14T04:17:32.442Z,2.30
2019-05-14T04:19:53.942Z,2.25
2019-05-14T04:22:22.426Z,2.30
2019-05-14T04:24:53.844Z,2.40
2019-05-14T04:27:23.540Z,2.30
2019-05-14T04:29:52.536Z,2.60
2019-05-14T04:32:20.240Z,2.40
2019-05-14T04:34:53.247Z,2.27
2019-05-14T04:37:20.590Z,2.50
2019-05-14T04:39:50.322Z,2.50
2019-05-14T04:42:20.036Z,2.70
2019-05-14T04:44:45.656Z,2.50
2019-05-14T04:47:27.617Z,2.30
2019-05-14T04:49:41.789Z,2.65
2019-05-14T04:52:10.068Z,2.58
2019-05-14T04:54:39.386Z,2.58
2019-05-14T04:57:09.861Z,2.70
2019-05-14T04:59:35.416Z,2.60
2019-05-14T05:02:02.854Z,2.20
2019-05-14T05:04:30.339Z,2.60
2019-05-14T05:06:59.234Z,2.40
2019-05-14T05:09:29.061Z,2.40
2019-05-14T05:11:54.870Z,2.50
2019-05-14T05:14:23.794Z,2.50
2019-05-14T05:16:50.321Z,2.58
2019-05-14T05:19:19.578Z,2.50
2019-05-14T05:21:47.983Z,2.60
2019-05-14T05:24:14.434Z,2.52
2019-05-14T05:26:41.230Z,2.47
2019-05-14T05:29:10.488Z,2.62
2019-05-14T05:31:38.122Z,2.80
2019-05-14T05:34:05.247Z,2.42
2019-05-14T05:36:32.465Z,2.40
2019-05-14T05:38:59.585Z,2.30
2019-05-14T05:41:28.250Z,2.50
2019-05-14T05:43:55.358Z,2.33
2019-05-14T05:46:22.262Z,2.80
2019-05-14T05:48:49.015Z,3.25
2019-05-14T05:51:18.415Z,2.67
2019-05-14T05:53:44.542Z,2.77
2019-05-14T05:56:11.429Z,2.90
2019-05-14T05:58:39.765Z,3.30
2019-05-14T06:01:09.718Z,3.27
2019-05-14T06:03:35.733Z,3.15
2019-05-14T06:06:03.796Z,2.98
2019-05-14T06:08:30.729Z,3.05
2019-05-14T06:10:59.185Z,3.00
2019-05-14T06:13:28.535Z,2.85
2019-05-14T06:15:54.964Z,2.50
2019-05-14T06:18:22.376Z,2.27
2019-05-14T06:20:49.546Z,1.95
2019-05-14T06:23:18.889Z,2.47
2019-05-14T06:25:48.888Z,3.95
2019-05-14T06:28:14.678Z,3.27
2019-05-14T06:30:41.685Z,3.02
2019-05-14T06:33:09.349Z,2.20
2019-05-14T06:35:39.371Z,2.35
2019-05-14T06:38:05.597Z,1.92
2019-05-14T06:40:32.768Z,2.00
2019-05-14T06:42:59.984Z,2.17
2019-05-14T06:45:29.185Z,2.10
2019-05-14T06:47:56.169Z,1.80
2019-05-14T06:50:22.926Z,1.90
2019-05-14T06:52:49.695Z,2.05
2019-05-14T06:55:18.059Z,2.33
2019-05-14T06:57:45.365Z,2.10
2019-05-14T07:00:13.120Z,2.30
2019-05-14T07:02:43.477Z,2.55
2019-05-14T07:05:09.001Z,2.30
2019-05-14T07:07:36.106Z,2.80
2019-05-14T07:10:08.774Z,2.40
2019-05-14T07:12:35.079Z,2.50
2019-05-14T07:15:03.528Z,3.60
2019-05-14T07:17:30.745Z,2.40
2019-05-14T07:19:58.227Z,2.20
2019-05-14T07:22:25.417Z,2.10
2019-05-14T07:24:52.343Z,2.25
2019-05-14T07:27:19.431Z,2.60
2019-05-14T07:29:48.994Z,1.90
2019-05-14T07:32:15.364Z,2.08
2019-05-14T07:34:43.452Z,2.40
2019-05-14T07:37:10.238Z,1.80
2019-05-14T07:39:38.562Z,2.10
2019-05-14T07:42:09.352Z,2.00
2019-05-14T07:44:35.655Z,2.00
2019-05-14T07:47:02.748Z,1.90
2019-05-14T07:49:29.522Z,2.22
2019-05-14T07:51:58.587Z,2.00
2019-05-14T07:54:25.082Z,2.00
2019-05-14T07:56:53.040Z,2.47
2019-05-14T07:59:20.221Z,2.30
2019-05-14T08:01:49.068Z,2.80
2019-05-14T08:04:19.767Z,2.70
2019-05-14T08:06:44.528Z,2.47
2019-05-14T08:09:11.762Z,2.60
2019-05-14T08:11:39.008Z,2.37
2019-05-14T08:14:05.877Z,2.30
2019-05-14T08:16:32.830Z,2.30
2019-05-14T08:19:00.260Z,2.62
2019-05-14T08:21:28.360Z,2.20
2019-05-14T08:23:59.365Z,2.35
2019-05-14T08:26:26.300Z,2.25
2019-05-14T08:28:53.554Z,2.33
2019-05-14T08:31:20.437Z,2.70
2019-05-14T08:33:48.854Z,2.70
2019-05-14T08:36:18.416Z,2.70
2019-05-14T08:38:46.620Z,2.25
2019-05-14T08:41:15.473Z,2.30
2019-05-14T08:43:42.707Z,2.52
2019-05-14T08:46:09.459Z,2.37
2019-05-14T08:48:38.787Z,2.55
2019-05-14T08:51:05.089Z,2.20
2019-05-14T08:53:31.971Z,2.50
2019-05-14T08:55:59.370Z,2.50
2019-05-14T08:58:27.458Z,2.87
2019-05-14T09:00:55.245Z,2.15
2019-05-14T09:03:22.056Z,2.60
2019-05-14T09:05:49.422Z,2.08
2019-05-14T09:08:18.973Z,2.37
2019-05-14T09:10:45.337Z,2.92
2019-05-14T09:13:12.551Z,3.35
2019-05-14T09:15:39.713Z,2.55
2019-05-14T09:18:11.290Z,2.72
2019-05-14T09:20:35.301Z,2.60
2019-05-14T09:23:02.292Z,2.40
2019-05-14T09:25:29.327Z,2.27
2019-05-14T09:27:58.625Z,2.70
2019-05-14T09:30:25.474Z,2.58
2019-05-14T09:32:52.354Z,2.70
2019-05-14T09:35:20.033Z,2.50
2019-05-14T09:37:50.974Z,2.70
2019-05-14T09:40:16.057Z,2.83
2019-05-14T09:42:43.189Z,2.60
2019-05-14T09:45:11.595Z,3.05
2019-05-14T09:47:39.182Z,2.75
2019-05-14T09:50:16.377Z,2.90
2019-05-14T09:52:39.137Z,2.42
2019-05-14T09:55:06.293Z,3.15
2019-05-14T09:57:33.188Z,2.58
2019-05-14T09:59:59.971Z,3.08
2019-05-14T10:02:26.758Z,2.90
2019-05-14T10:04:54.181Z,3.17
2019-05-14T10:07:20.934Z,2.65
2019-05-14T10:09:49.254Z,2.70
2019-05-14T10:12:16.543Z,2.90
2019-05-14T10:14:43.357Z,5.25
2019-05-14T10:17:10.446Z,2.62
2019-05-14T10:19:39.257Z,2.70
2019-05-14T10:22:08.278Z,2.55
2019-05-14T10:24:38.372Z,2.50
2019-05-14T10:27:08.990Z,2.45
2019-05-14T10:29:35.916Z,2.45
2019-05-14T10:32:02.975Z,2.08
2019-05-14T10:34:29.988Z,2.80
2019-05-14T10:36:59.065Z,2.25
2019-05-14T10:39:25.989Z,2.10
2019-05-14T10:41:52.767Z,2.25
2019-05-14T10:44:19.618Z,2.20
2019-05-14T10:46:46.874Z,2.55
2019-05-14T10:49:23.028Z,2.17
2019-05-14T10:51:43.151Z,2.25
2019-05-14T10:54:21.007Z,2.10
2019-05-14T10:56:39.655Z,2.30
2019-05-14T10:59:09.310Z,1.92
2019-05-14T11:01:35.539Z,2.17
2019-05-14T11:04:02.848Z,2.12
2019-05-14T11:06:30.219Z,2.35
2019-05-14T11:08:57.092Z,2.08
2019-05-14T11:11:26.293Z,2.50
2019-05-14T11:13:54.105Z,2.10
2019-05-14T11:16:24.648Z,2.40
2019-05-14T11:18:51.851Z,2.20
2019-05-14T11:21:26.028Z,2.37
2019-05-14T11:23:49.032Z,2.00
2019-05-14T11:26:18.485Z,2.20
2019-05-14T11:28:45.734Z,2.15
2019-05-14T11:31:13.062Z,2.20
2019-05-14T11:33:39.913Z,2.70
2019-05-14T11:36:09.378Z,2.25
2019-05-14T11:38:37.412Z,2.45
2019-05-14T11:41:05.127Z,2.37
2019-05-14T11:43:32.353Z,2.45
2019-05-14T11:45:59.541Z,2.30
2019-05-14T11:48:26.380Z,1.92
2019-05-14T11:50:53.640Z,1.75
2019-05-14T11:53:20.802Z,2.40
2019-05-14T11:55:50.292Z,2.10
2019-05-14T11:58:20.679Z,2.15
2019-05-14T12:00:47.746Z,2.10
2019-05-14T12:03:15.500Z,2.20
2019-05-14T12:05:42.659Z,2.00
2019-05-14T12:08:09.536Z,1.85
2019-05-14T12:10:38.676Z,1.87
2019-05-14T12:13:08.387Z,1.87
2019-05-14T12:15:35.061Z,1.80
2019-05-14T12:18:02.046Z,2.45
2019-05-14T12:20:29.776Z,2.30
2019-05-14T12:22:59.320Z,1.95
2019-05-14T12:25:29.197Z,2.10
2019-05-14T12:27:58.717Z,2.00
2019-05-14T12:30:25.457Z,1.90
2019-05-14T12:32:54.139Z,2.00
2019-05-14T12:35:21.913Z,1.77
2019-05-14T12:37:52.355Z,1.82
2019-05-14T12:40:20.097Z,1.82
2019-05-14T12:42:49.647Z,1.90
2019-05-14T12:45:19.127Z,2.10
2019-05-14T12:47:49.833Z,1.75
2019-05-14T12:50:15.348Z,1.85
2019-05-14T12:52:42.765Z,2.00
2019-05-14T12:55:10.433Z,2.12
2019-05-14T12:57:39.396Z,1.85
2019-05-14T13:00:08.982Z,1.60
2019-05-14T13:02:36.165Z,6.37
2019-05-14T13:05:09.046Z,2.45
2019-05-14T13:07:36.432Z,1.75
2019-05-14T13:10:09.168Z,1.70
2019-05-14T13:12:35.758Z,1.60
2019-05-14T13:15:05.074Z,1.70
2019-05-14T13:17:31.861Z,1.67
2019-05-14T13:19:59.080Z,1.60
2019-05-14T13:22:41.587Z,1.65
2019-05-14T13:24:54.773Z,1.42
2019-05-14T13:27:21.723Z,1.95
2019-05-14T13:29:49.114Z,1.37
2019-05-14T13:32:16.186Z,1.30
2019-05-14T13:34:48.642Z,1.50
2019-05-14T13:37:20.681Z,1.32
2019-05-14T13:39:52.748Z,1.40
2019-05-14T13:42:18.658Z,1.40
2019-05-14T13:44:46.189Z,1.70
2019-05-14T13:47:13.009Z,1.30
2019-05-14T13:49:39.885Z,1.35
2019-05-14T13:52:09.121Z,1.60
2019-05-14T13:54:35.735Z,1.60
2019-05-14T13:57:02.713Z,1.10
2019-05-14T13:59:29.506Z,1.42
2019-05-14T14:01:59.144Z,1.30
2019-05-14T14:04:25.557Z,1.50
2019-05-14T14:06:54.960Z,1.20
2019-05-14T14:09:22.959Z,1.45
2019-05-14T14:11:49.790Z,1.40
2019-05-14T14:14:19.921Z,1.20
2019-05-14T14:16:49.198Z,1.10
2019-05-14T14:19:18.620Z,1.20
2019-05-14T14:21:45.177Z,1.50
2019-05-14T14:24:12.122Z,1.35
2019-05-14T14:26:39.479Z,1.20
2019-05-14T14:29:09.917Z,1.00
2019-05-14T14:31:41.434Z,1.32
2019-05-14T14:34:08.917Z,1.25
2019-05-14T14:36:38.655Z,1.75
2019-05-14T14:39:06.289Z,3.77
2019-05-14T14:41:33.712Z,1.37
2019-05-14T14:44:00.613Z,1.37
2019-05-14T14:46:28.711Z,1.20
2019-05-14T14:48:58.950Z,1.30
2019-05-14T14:51:31.026Z,1.98
2019-05-14T14:54:02.591Z,1.30
2019-05-14T14:56:28.387Z,1.50
2019-05-14T14:58:55.367Z,1.30
2019-05-14T15:01:22.145Z,1.30
2019-05-14T15:03:50.085Z,1.30
2019-05-14T15:06:17.517Z,1.62
2019-05-14T15:08:44.297Z,1.20
2019-05-14T15:11:11.397Z,1.32
2019-05-14T15:13:39.051Z,1.40
2019-05-14T15:16:12.729Z,1.35
2019-05-14T15:18:38.495Z,1.25
2019-05-14T15:21:04.395Z,1.37
2019-05-14T15:23:31.988Z,1.35
2019-05-14T15:25:59.080Z,1.30
2019-05-14T15:28:26.074Z,1.25
2019-05-14T15:30:52.915Z,1.30
2019-05-14T15:33:20.276Z,1.57
2019-05-14T15:35:52.855Z,1.50
2019-05-14T15:38:20.269Z,1.30
2019-05-14T15:40:48.823Z,1.40
2019-05-14T15:43:19.218Z,1.17
2019-05-14T15:45:48.408Z,1.45
2019-05-14T15:48:15.485Z,1.40
2019-05-14T15:50:42.748Z,1.60
2019-05-14T15:53:11.270Z,1.25
2019-05-14T15:55:38.553Z,1.57
2019-05-14T15:58:05.306Z,1.30
2019-05-14T16:00:32.955Z,1.10
2019-05-14T16:03:00.377Z,1.02
2019-05-14T16:05:30.300Z,1.20
2019-05-14T16:08:00.407Z,1.35
2019-05-14T16:10:31.089Z,1.80
2019-05-14T16:12:56.019Z,1.20
2019-05-14T16:15:23.049Z,1.30
2019-05-14T16:18:05.917Z,1.27
2019-05-14T16:20:19.421Z,1.40
2019-05-14T16:22:46.730Z,1.75
2019-05-14T16:25:14.525Z,1.50
2019-05-14T16:27:41.447Z,1.02
2019-05-14T16:30:10.435Z,1.40
2019-05-14T16:32:39.389Z,1.50
2019-05-14T16:35:09.639Z,1.60
2019-05-14T16:37:38.857Z,1.35
2019-05-14T16:40:06.928Z,1.30
2019-05-14T16:42:33.806Z,1.40
2019-05-14T16:45:00.796Z,1.70
2019-05-14T16:47:28.621Z,2.17
2019-05-14T16:49:59.013Z,1.70
2019-05-14T16:52:25.159Z,1.30
2019-05-14T16:54:51.967Z,1.40
2019-05-14T16:57:18.846Z,1.40
2019-05-14T16:59:45.638Z,1.30
2019-05-14T17:02:13.905Z,1.37
2019-05-14T17:04:41.335Z,1.30
2019-05-14T17:07:09.543Z,1.47
2019-05-14T17:09:38.463Z,1.50
2019-05-14T17:12:05.746Z,1.85
2019-05-14T17:14:32.797Z,1.50
2019-05-14T17:17:01.333Z,1.22
2019-05-14T17:19:29.844Z,1.45
2019-05-14T17:21:59.261Z,1.57
2019-05-14T17:24:28.889Z,1.70
2019-05-14T17:26:55.031Z,1.60
2019-05-14T17:29:22.401Z,1.57
2019-05-14T17:31:49.520Z,1.40
2019-05-14T17:34:18.613Z,1.15
2019-05-14T17:36:48.216Z,1.50
2019-05-14T17:39:14.759Z,1.00
2019-05-14T17:41:42.218Z,1.27
2019-05-14T17:44:09.250Z,1.50
2019-05-14T17:46:36.370Z,1.40
2019-05-14T17:49:03.925Z,1.30
2019-05-14T17:51:30.762Z,1.52
2019-05-14T17:53:58.669Z,1.10
2019-05-14T17:56:25.759Z,1.17
2019-05-14T17:58:52.629Z,1.22
2019-05-14T18:01:19.664Z,1.40
2019-05-14T18:03:48.830Z,1.60
2019-05-14T18:06:18.949Z,1.50
2019-05-14T18:08:46.470Z,1.45
2019-05-14T18:11:13.413Z,1.20
2019-05-14T18:13:43.158Z,1.07
2019-05-14T18:16:10.065Z,1.30
2019-05-14T18:18:36.889Z,1.67
2019-05-14T18:21:04.069Z,1.50
2019-05-14T18:23:31.287Z,1.22
2019-05-14T18:26:04.841Z,1.32
2019-05-14T18:28:28.833Z,1.52
2019-05-14T18:30:58.571Z,1.80
2019-05-14T18:33:24.958Z,1.95
2019-05-14T18:35:52.193Z,1.77
2019-05-14T18:38:19.544Z,1.50
2019-05-14T18:40:49.541Z,1.55
2019-05-14T18:43:18.727Z,1.82
2019-05-14T18:45:47.957Z,2.22
2019-05-14T18:48:14.748Z,2.20
2019-05-14T18:50:41.540Z,2.40
2019-05-14T18:53:12.756Z,1.90
2019-05-14T18:55:38.614Z,2.27
2019-05-14T18:58:05.757Z,1.90
2019-05-14T19:00:35.758Z,1.70
2019-05-14T19:03:02.890Z,1.82
2019-05-14T19:05:29.900Z,1.75
2019-05-14T19:07:59.263Z,1.70
2019-05-14T19:10:28.696Z,1.67
2019-05-14T19:12:55.600Z,2.40
2019-05-14T19:15:22.625Z,2.08
2019-05-14T19:17:49.435Z,2.10
2019-05-14T19:20:19.072Z,1.90
2019-05-14T19:22:45.671Z,1.70
2019-05-14T19:25:13.218Z,1.40
2019-05-14T19:27:40.026Z,2.00
2019-05-14T19:30:08.446Z,1.95
2019-05-14T19:32:35.690Z,1.62
2019-05-14T19:35:08.644Z,1.50
2019-05-14T19:37:38.781Z,1.82
2019-05-14T19:40:09.233Z,2.40
2019-05-14T19:42:39.051Z,2.17
2019-05-14T19:45:08.505Z,2.10
2019-05-14T19:47:36.596Z,1.95
2019-05-14T19:50:08.874Z,2.02
2019-05-14T19:52:35.363Z,2.30
2019-05-14T19:55:05.373Z,2.65
2019-05-14T19:57:32.421Z,2.85
2019-05-14T19:59:59.275Z,3.37
2019-05-14T20:02:28.514Z,2.20
2019-05-14T20:04:55.582Z,2.05
2019-05-14T20:07:22.391Z,1.92
2019-05-14T20:09:49.253Z,1.70
2019-05-14T20:12:18.219Z,1.65
2019-05-14T20:14:48.844Z,1.40
2019-05-14T20:17:15.536Z,1.35
2019-05-14T20:19:42.813Z,1.20
2019-05-14T20:22:09.818Z,1.50
2019-05-14T20:24:41.178Z,1.40
2019-05-14T20:27:09.306Z,1.50
2019-05-14T20:29:34.542Z,1.60
2019-05-14T20:32:02.030Z,1.60
2019-05-14T20:34:29.486Z,1.52
2019-05-14T20:36:56.254Z,1.85
2019-05-14T20:39:23.131Z,1.60
2019-05-14T20:41:50.026Z,1.65
2019-05-14T20:44:18.970Z,2.50
2019-05-14T20:46:45.728Z,1.50
2019-05-14T20:49:12.531Z,1.80
2019-05-14T20:51:39.269Z,1.50
2019-05-14T20:54:08.768Z,2.00
2019-05-14T20:56:35.541Z,1.75
2019-05-14T20:59:02.444Z,1.70
2019-05-14T21:01:29.319Z,1.65
2019-05-14T21:03:56.335Z,1.70
2019-05-14T21:06:23.340Z,2.00
2019-05-14T21:08:50.533Z,2.02
2019-05-14T21:11:19.085Z,1.80
2019-05-14T21:13:50.061Z,1.60
2019-05-14T21:16:18.309Z,1.60
2019-05-14T21:18:45.208Z,1.70
2019-05-14T21:21:12.717Z,1.92
2019-05-14T21:23:39.645Z,1.75
2019-05-14T21:26:08.430Z,1.80
2019-05-14T21:28:35.350Z,2.08
2019-05-14T21:31:02.858Z,1.75
2019-05-14T21:33:30.424Z,1.85
2019-05-14T21:35:59.258Z,1.80
2019-05-14T21:38:28.552Z,1.77
2019-05-14T21:40:55.275Z,1.90
2019-05-14T21:43:22.827Z,1.98
2019-05-14T21:45:49.905Z,1.87
2019-05-14T21:48:19.615Z,1.55
2019-05-14T21:50:45.564Z,1.47
2019-05-14T21:53:12.988Z,2.00
2019-05-14T21:55:40.341Z,2.00
2019-05-14T21:58:09.087Z,1.72
2019-05-14T22:00:42.645Z,2.00
2019-05-14T22:03:10.477Z,1.50
2019-05-14T22:05:39.333Z,1.80
2019-05-14T22:08:08.656Z,1.75
2019-05-14T22:10:35.659Z,1.65
2019-05-14T22:13:02.814Z,2.15
2019-05-14T22:15:29.948Z,1.90
2019-05-14T22:17:58.746Z,2.05
2019-05-14T22:20:25.731Z,1.90
2019-05-14T22:22:52.648Z,2.20
2019-05-14T22:25:19.468Z,2.40
2019-05-14T22:27:48.338Z,2.42
2019-05-14T22:30:18.284Z,2.30
2019-05-14T22:32:44.943Z,2.30
2019-05-14T22:35:12.150Z,2.37
2019-05-14T22:37:39.422Z,2.58
2019-05-14T22:40:09.801Z,2.60
2019-05-14T22:42:39.038Z,2.25
2019-05-14T22:45:09.150Z,2.27
2019-05-14T22:47:39.973Z,2.70
2019-05-14T22:50:08.911Z,2.35
2019-05-14T22:52:38.596Z,2.27
2019-05-14T22:55:05.683Z,2.35
2019-05-14T22:57:32.577Z,2.47
2019-05-14T22:59:59.955Z,2.10
2019-05-14T23:02:28.455Z,2.70
2019-05-14T23:04:55.914Z,2.47
2019-05-14T23:07:22.716Z,2.25
2019-05-14T23:09:49.501Z,2.50
2019-05-14T23:12:16.789Z,2.80
2019-05-14T23:14:43.707Z,2.30
2019-05-14T23:17:10.506Z,2.22
2019-05-14T23:19:37.290Z,2.00
2019-05-14T23:22:04.535Z,2.30
2019-05-14T23:24:31.330Z,2.10
2019-05-14T23:26:58.608Z,1.82
2019-05-14T23:29:25.435Z,2.30
2019-05-14T23:31:52.251Z,2.40
2019-05-14T23:34:19.124Z,2.22
2019-05-14T23:36:48.174Z,2.15
2019-05-14T23:39:15.856Z,2.33
2019-05-14T23:41:43.508Z,2.10
2019-05-14T23:44:10.450Z,2.35
2019-05-14T23:46:37.655Z,2.10
2019-05-14T23:49:04.481Z,2.50
2019-05-14T23:51:31.267Z,2.20
2019-05-14T23:53:58.321Z,2.60
2019-05-14T23:56:25.134Z,2.12
2019-05-14T23:58:57.723Z,2.35
